sensor_id;sensor_type;location;lat;lon;timestamp;P1;durP1;ratioP1;P2;durP2;ratioP2
14883;SDS011;7534;50.762;7.000;2023-07-31T00:01:01;4.55;;;2.85;;
14883;SDS011;7534;50.762;7.000;2023-07-31T00:03:27;6.20;;;3.00;;
14883;SDS011;7534;50.762;7.000;2023-07-31T00:05:52;6.75;;;2.97;;
14883;SDS011;7534;50.762;7.000;2023-07-31T00:08:18;3.88;;;2.95;;
14883;SDS011;7534;50.762;7.000;2023-07-31T00:10:44;3.97;;;2.78;;
14883;SDS011;7534;50.762;7.000;2023-07-31T00:13:10;6.10;;;2.92;;
14883;SDS011;7534;50.762;7.000;2023-07-31T00:15:35;7.28;;;2.83;;
14883;SDS011;7534;50.762;7.000;2023-07-31T00:18:01;5.00;;;2.60;;
14883;SDS011;7534;50.762;7.000;2023-07-31T00:20:27;5.28;;;2.95;;
14883;SDS011;7534;50.762;7.000;2023-07-31T00:22:53;5.82;;;3.30;;
14883;SDS011;7534;50.762;7.000;2023-07-31T00:25:18;5.07;;;2.53;;
14883;SDS011;7534;50.762;7.000;2023-07-31T00:27:44;5.68;;;2.92;;
14883;SDS011;7534;50.762;7.000;2023-07-31T00:30:11;4.28;;;2.95;;
14883;SDS011;7534;50.762;7.000;2023-07-31T00:32:37;3.55;;;2.45;;
14883;SDS011;7534;50.762;7.000;2023-07-31T00:35:02;3.22;;;2.35;;
14883;SDS011;7534;50.762;7.000;2023-07-31T00:37:29;3.95;;;2.60;;
14883;SDS011;7534;50.762;7.000;2023-07-31T00:39:54;2.88;;;2.47;;
14883;SDS011;7534;50.762;7.000;2023-07-31T00:42:20;4.95;;;2.28;;
14883;SDS011;7534;50.762;7.000;2023-07-31T00:44:46;4.40;;;2.53;;
14883;SDS011;7534;50.762;7.000;2023-07-31T00:47:11;4.78;;;2.40;;
14883;SDS011;7534;50.762;7.000;2023-07-31T00:49:37;5.13;;;2.53;;
14883;SDS011;7534;50.762;7.000;2023-07-31T00:52:03;3.10;;;2.20;;
14883;SDS011;7534;50.762;7.000;2023-07-31T00:54:29;3.60;;;2.10;;
14883;SDS011;7534;50.762;7.000;2023-07-31T00:56:55;3.47;;;2.30;;
14883;SDS011;7534;50.762;7.000;2023-07-31T00:59:22;3.20;;;2.15;;
14883;SDS011;7534;50.762;7.000;2023-07-31T01:01:48;7.72;;;2.30;;
14883;SDS011;7534;50.762;7.000;2023-07-31T01:04:14;2.47;;;2.17;;
14883;SDS011;7534;50.762;7.000;2023-07-31T01:09:29;3.13;;;2.42;;
14883;SDS011;7534;50.762;7.000;2023-07-31T01:12:03;5.00;;;2.42;;
14883;SDS011;7534;50.762;7.000;2023-07-31T01:14:32;4.93;;;2.33;;
14883;SDS011;7534;50.762;7.000;2023-07-31T01:16:58;3.13;;;2.40;;
14883;SDS011;7534;50.762;7.000;2023-07-31T01:19:24;4.53;;;2.42;;
14883;SDS011;7534;50.762;7.000;2023-07-31T01:27:30;6.22;;;2.03;;
14883;SDS011;7534;50.762;7.000;2023-07-31T01:30:14;4.10;;;2.20;;
14883;SDS011;7534;50.762;7.000;2023-07-31T01:32:44;2.70;;;2.13;;
14883;SDS011;7534;50.762;7.000;2023-07-31T01:35:13;3.63;;;2.40;;
14883;SDS011;7534;50.762;7.000;2023-07-31T01:37:39;4.00;;;2.38;;
14883;SDS011;7534;50.762;7.000;2023-07-31T01:40:06;3.63;;;2.15;;
14883;SDS011;7534;50.762;7.000;2023-07-31T01:42:32;3.17;;;2.28;;
14883;SDS011;7534;50.762;7.000;2023-07-31T01:44:58;3.67;;;2.30;;
14883;SDS011;7534;50.762;7.000;2023-07-31T01:47:24;3.00;;;2.30;;
14883;SDS011;7534;50.762;7.000;2023-07-31T01:49:49;3.20;;;2.30;;
14883;SDS011;7534;50.762;7.000;2023-07-31T01:52:15;4.30;;;2.58;;
14883;SDS011;7534;50.762;7.000;2023-07-31T01:54:41;3.88;;;2.40;;
14883;SDS011;7534;50.762;7.000;2023-07-31T01:57:06;3.38;;;2.20;;
14883;SDS011;7534;50.762;7.000;2023-07-31T01:59:32;5.50;;;2.42;;
14883;SDS011;7534;50.762;7.000;2023-07-31T02:01:58;4.53;;;2.20;;
14883;SDS011;7534;50.762;7.000;2023-07-31T02:04:23;3.33;;;2.50;;
14883;SDS011;7534;50.762;7.000;2023-07-31T02:06:49;4.20;;;2.67;;
14883;SDS011;7534;50.762;7.000;2023-07-31T02:09:15;3.95;;;2.83;;
14883;SDS011;7534;50.762;7.000;2023-07-31T02:11:40;5.03;;;3.20;;
14883;SDS011;7534;50.762;7.000;2023-07-31T02:14:06;4.50;;;2.80;;
14883;SDS011;7534;50.762;7.000;2023-07-31T02:16:32;3.60;;;2.70;;
14883;SDS011;7534;50.762;7.000;2023-07-31T02:19:01;4.40;;;2.60;;
14883;SDS011;7534;50.762;7.000;2023-07-31T02:21:30;6.60;;;2.88;;
14883;SDS011;7534;50.762;7.000;2023-07-31T02:23:56;4.88;;;3.03;;
14883;SDS011;7534;50.762;7.000;2023-07-31T02:26:22;5.75;;;2.53;;
14883;SDS011;7534;50.762;7.000;2023-07-31T02:28:47;6.60;;;2.53;;
14883;SDS011;7534;50.762;7.000;2023-07-31T02:31:13;5.10;;;3.03;;
14883;SDS011;7534;50.762;7.000;2023-07-31T02:33:39;5.13;;;3.08;;
14883;SDS011;7534;50.762;7.000;2023-07-31T02:36:04;5.20;;;2.75;;
14883;SDS011;7534;50.762;7.000;2023-07-31T02:38:30;5.13;;;2.85;;
14883;SDS011;7534;50.762;7.000;2023-07-31T02:40:56;5.65;;;3.03;;
14883;SDS011;7534;50.762;7.000;2023-07-31T02:43:21;4.65;;;2.70;;
14883;SDS011;7534;50.762;7.000;2023-07-31T02:45:50;4.60;;;3.10;;
14883;SDS011;7534;50.762;7.000;2023-07-31T02:48:17;6.78;;;2.80;;
14883;SDS011;7534;50.762;7.000;2023-07-31T02:50:44;4.38;;;2.70;;
14883;SDS011;7534;50.762;7.000;2023-07-31T02:53:10;4.30;;;2.70;;
14883;SDS011;7534;50.762;7.000;2023-07-31T02:55:37;5.38;;;2.80;;
14883;SDS011;7534;50.762;7.000;2023-07-31T02:58:03;5.15;;;2.75;;
14883;SDS011;7534;50.762;7.000;2023-07-31T03:00:29;5.32;;;2.80;;
14883;SDS011;7534;50.762;7.000;2023-07-31T03:02:55;4.68;;;2.88;;
14883;SDS011;7534;50.762;7.000;2023-07-31T03:05:21;4.95;;;2.50;;
14883;SDS011;7534;50.762;7.000;2023-07-31T03:07:46;5.22;;;2.85;;
14883;SDS011;7534;50.762;7.000;2023-07-31T03:10:12;6.57;;;3.00;;
14883;SDS011;7534;50.762;7.000;2023-07-31T03:12:37;3.97;;;2.40;;
14883;SDS011;7534;50.762;7.000;2023-07-31T03:15:03;5.53;;;2.45;;
14883;SDS011;7534;50.762;7.000;2023-07-31T03:17:29;4.93;;;2.92;;
14883;SDS011;7534;50.762;7.000;2023-07-31T03:19:55;3.40;;;2.60;;
14883;SDS011;7534;50.762;7.000;2023-07-31T03:22:21;4.90;;;2.50;;
14883;SDS011;7534;50.762;7.000;2023-07-31T03:24:46;4.65;;;2.85;;
14883;SDS011;7534;50.762;7.000;2023-07-31T03:27:12;4.63;;;2.40;;
14883;SDS011;7534;50.762;7.000;2023-07-31T03:29:38;6.22;;;2.85;;
14883;SDS011;7534;50.762;7.000;2023-07-31T03:32:03;4.75;;;2.60;;
14883;SDS011;7534;50.762;7.000;2023-07-31T03:34:30;3.17;;;2.70;;
14883;SDS011;7534;50.762;7.000;2023-07-31T03:36:57;4.88;;;2.65;;
14883;SDS011;7534;50.762;7.000;2023-07-31T03:39:23;4.55;;;2.95;;
14883;SDS011;7534;50.762;7.000;2023-07-31T03:41:49;4.05;;;2.78;;
14883;SDS011;7534;50.762;7.000;2023-07-31T03:44:15;5.22;;;2.88;;
14883;SDS011;7534;50.762;7.000;2023-07-31T03:46:40;5.03;;;2.80;;
14883;SDS011;7534;50.762;7.000;2023-07-31T03:49:06;3.85;;;2.80;;
14883;SDS011;7534;50.762;7.000;2023-07-31T03:51:32;4.63;;;3.05;;
14883;SDS011;7534;50.762;7.000;2023-07-31T03:53:57;4.43;;;2.60;;
14883;SDS011;7534;50.762;7.000;2023-07-31T03:56:23;4.68;;;2.80;;
14883;SDS011;7534;50.762;7.000;2023-07-31T03:58:49;3.40;;;2.60;;
14883;SDS011;7534;50.762;7.000;2023-07-31T04:01:14;5.78;;;2.90;;
14883;SDS011;7534;50.762;7.000;2023-07-31T04:03:40;3.47;;;2.38;;
14883;SDS011;7534;50.762;7.000;2023-07-31T04:06:06;4.55;;;2.85;;
14883;SDS011;7534;50.762;7.000;2023-07-31T04:08:32;3.30;;;2.60;;
14883;SDS011;7534;50.762;7.000;2023-07-31T04:10:58;4.32;;;2.70;;
14883;SDS011;7534;50.762;7.000;2023-07-31T04:13:23;5.40;;;2.65;;
14883;SDS011;7534;50.762;7.000;2023-07-31T04:15:52;3.88;;;2.88;;
14883;SDS011;7534;50.762;7.000;2023-07-31T04:18:19;4.88;;;3.17;;
14883;SDS011;7534;50.762;7.000;2023-07-31T04:20:45;4.35;;;2.90;;
14883;SDS011;7534;50.762;7.000;2023-07-31T04:23:11;5.93;;;2.90;;
14883;SDS011;7534;50.762;7.000;2023-07-31T04:25:36;3.67;;;3.10;;
14883;SDS011;7534;50.762;7.000;2023-07-31T04:28:02;4.00;;;2.75;;
14883;SDS011;7534;50.762;7.000;2023-07-31T04:30:28;7.10;;;3.00;;
14883;SDS011;7534;50.762;7.000;2023-07-31T04:32:53;4.53;;;2.60;;
14883;SDS011;7534;50.762;7.000;2023-07-31T04:35:19;4.20;;;2.97;;
14883;SDS011;7534;50.762;7.000;2023-07-31T04:37:45;5.32;;;3.10;;
14883;SDS011;7534;50.762;7.000;2023-07-31T04:40:13;5.18;;;2.80;;
14883;SDS011;7534;50.762;7.000;2023-07-31T04:42:40;5.53;;;2.70;;
14883;SDS011;7534;50.762;7.000;2023-07-31T04:45:06;7.43;;;3.13;;
14883;SDS011;7534;50.762;7.000;2023-07-31T04:47:33;5.63;;;3.03;;
14883;SDS011;7534;50.762;7.000;2023-07-31T04:49:59;5.80;;;3.13;;
14883;SDS011;7534;50.762;7.000;2023-07-31T04:52:24;5.55;;;3.10;;
14883;SDS011;7534;50.762;7.000;2023-07-31T04:54:50;3.90;;;2.83;;
14883;SDS011;7534;50.762;7.000;2023-07-31T04:57:16;5.13;;;3.10;;
14883;SDS011;7534;50.762;7.000;2023-07-31T04:59:42;4.95;;;3.20;;
14883;SDS011;7534;50.762;7.000;2023-07-31T05:02:08;4.55;;;3.25;;
14883;SDS011;7534;50.762;7.000;2023-07-31T05:04:34;4.32;;;3.10;;
14883;SDS011;7534;50.762;7.000;2023-07-31T05:06:59;3.78;;;3.28;;
14883;SDS011;7534;50.762;7.000;2023-07-31T05:09:25;6.15;;;3.10;;
14883;SDS011;7534;50.762;7.000;2023-07-31T05:11:51;4.22;;;2.90;;
14883;SDS011;7534;50.762;7.000;2023-07-31T05:14:16;5.55;;;3.05;;
14883;SDS011;7534;50.762;7.000;2023-07-31T05:16:42;4.90;;;3.25;;
14883;SDS011;7534;50.762;7.000;2023-07-31T05:19:08;3.80;;;3.03;;
14883;SDS011;7534;50.762;7.000;2023-07-31T05:21:34;4.07;;;2.97;;
14883;SDS011;7534;50.762;7.000;2023-07-31T05:23:59;6.40;;;3.40;;
14883;SDS011;7534;50.762;7.000;2023-07-31T05:26:25;4.50;;;3.00;;
14883;SDS011;7534;50.762;7.000;2023-07-31T05:28:50;4.78;;;3.10;;
14883;SDS011;7534;50.762;7.000;2023-07-31T05:31:16;4.80;;;3.22;;
14883;SDS011;7534;50.762;7.000;2023-07-31T05:33:42;4.20;;;3.00;;
14883;SDS011;7534;50.762;7.000;2023-07-31T05:36:17;4.22;;;3.20;;
14883;SDS011;7534;50.762;7.000;2023-07-31T05:38:45;4.63;;;3.05;;
14883;SDS011;7534;50.762;7.000;2023-07-31T05:41:14;4.32;;;2.80;;
14883;SDS011;7534;50.762;7.000;2023-07-31T05:43:40;4.75;;;2.88;;
14883;SDS011;7534;50.762;7.000;2023-07-31T05:46:06;3.90;;;2.95;;
14883;SDS011;7534;50.762;7.000;2023-07-31T05:48:32;7.15;;;3.30;;
14883;SDS011;7534;50.762;7.000;2023-07-31T05:50:59;3.72;;;2.72;;
14883;SDS011;7534;50.762;7.000;2023-07-31T05:53:25;5.30;;;3.10;;
14883;SDS011;7534;50.762;7.000;2023-07-31T05:55:51;6.03;;;3.28;;
14883;SDS011;7534;50.762;7.000;2023-07-31T05:58:16;3.55;;;2.88;;
14883;SDS011;7534;50.762;7.000;2023-07-31T06:00:42;3.92;;;2.80;;
14883;SDS011;7534;50.762;7.000;2023-07-31T06:03:08;4.45;;;2.80;;
14883;SDS011;7534;50.762;7.000;2023-07-31T06:05:33;4.55;;;2.90;;
14883;SDS011;7534;50.762;7.000;2023-07-31T06:08:00;5.88;;;2.50;;
14883;SDS011;7534;50.762;7.000;2023-07-31T06:10:26;4.05;;;2.85;;
14883;SDS011;7534;50.762;7.000;2023-07-31T06:12:53;4.22;;;2.92;;
14883;SDS011;7534;50.762;7.000;2023-07-31T06:15:19;3.85;;;2.90;;
14883;SDS011;7534;50.762;7.000;2023-07-31T06:17:45;5.57;;;2.65;;
14883;SDS011;7534;50.762;7.000;2023-07-31T06:20:11;4.88;;;2.70;;
14883;SDS011;7534;50.762;7.000;2023-07-31T06:22:37;3.45;;;2.85;;
14883;SDS011;7534;50.762;7.000;2023-07-31T06:25:03;3.72;;;2.78;;
14883;SDS011;7534;50.762;7.000;2023-07-31T06:27:29;4.80;;;3.10;;
14883;SDS011;7534;50.762;7.000;2023-07-31T06:29:54;6.30;;;3.53;;
14883;SDS011;7534;50.762;7.000;2023-07-31T06:32:20;4.32;;;3.38;;
14883;SDS011;7534;50.762;7.000;2023-07-31T06:34:46;3.45;;;3.15;;
14883;SDS011;7534;50.762;7.000;2023-07-31T06:37:12;4.18;;;3.38;;
14883;SDS011;7534;50.762;7.000;2023-07-31T06:39:38;5.03;;;3.25;;
14883;SDS011;7534;50.762;7.000;2023-07-31T06:42:04;5.13;;;3.35;;
14883;SDS011;7534;50.762;7.000;2023-07-31T06:44:30;7.20;;;3.17;;
14883;SDS011;7534;50.762;7.000;2023-07-31T06:46:56;4.22;;;3.30;;
14883;SDS011;7534;50.762;7.000;2023-07-31T06:49:21;5.35;;;3.50;;
14883;SDS011;7534;50.762;7.000;2023-07-31T06:51:47;6.13;;;3.55;;
14883;SDS011;7534;50.762;7.000;2023-07-31T06:54:12;6.38;;;3.50;;
14883;SDS011;7534;50.762;7.000;2023-07-31T06:56:38;4.97;;;3.80;;
14883;SDS011;7534;50.762;7.000;2023-07-31T06:59:04;6.50;;;3.97;;
14883;SDS011;7534;50.762;7.000;2023-07-31T07:01:29;5.20;;;3.67;;
14883;SDS011;7534;50.762;7.000;2023-07-31T07:03:55;7.55;;;3.97;;
14883;SDS011;7534;50.762;7.000;2023-07-31T07:06:21;7.97;;;4.28;;
14883;SDS011;7534;50.762;7.000;2023-07-31T07:08:48;5.70;;;4.00;;
14883;SDS011;7534;50.762;7.000;2023-07-31T07:11:14;5.35;;;4.07;;
14883;SDS011;7534;50.762;7.000;2023-07-31T07:13:39;5.67;;;3.97;;
14883;SDS011;7534;50.762;7.000;2023-07-31T07:16:05;5.78;;;3.70;;
14883;SDS011;7534;50.762;7.000;2023-07-31T07:18:31;5.18;;;3.63;;
14883;SDS011;7534;50.762;7.000;2023-07-31T07:20:57;5.57;;;3.50;;
14883;SDS011;7534;50.762;7.000;2023-07-31T07:23:40;4.80;;;3.50;;
14883;SDS011;7534;50.762;7.000;2023-07-31T07:26:07;5.57;;;3.53;;
14883;SDS011;7534;50.762;7.000;2023-07-31T07:28:33;4.18;;;3.58;;
14883;SDS011;7534;50.762;7.000;2023-07-31T07:30:59;5.57;;;3.08;;
14883;SDS011;7534;50.762;7.000;2023-07-31T07:33:24;5.55;;;3.30;;
14883;SDS011;7534;50.762;7.000;2023-07-31T07:35:50;5.75;;;3.63;;
14883;SDS011;7534;50.762;7.000;2023-07-31T07:38:16;6.70;;;3.53;;
14883;SDS011;7534;50.762;7.000;2023-07-31T07:40:45;5.40;;;3.38;;
14883;SDS011;7534;50.762;7.000;2023-07-31T07:43:13;6.75;;;3.55;;
14883;SDS011;7534;50.762;7.000;2023-07-31T07:45:40;6.32;;;4.07;;
14883;SDS011;7534;50.762;7.000;2023-07-31T07:48:05;6.05;;;3.50;;
14883;SDS011;7534;50.762;7.000;2023-07-31T07:50:31;5.15;;;3.40;;
14883;SDS011;7534;50.762;7.000;2023-07-31T07:52:58;5.45;;;3.90;;
14883;SDS011;7534;50.762;7.000;2023-07-31T07:55:23;6.47;;;3.58;;
14883;SDS011;7534;50.762;7.000;2023-07-31T07:57:49;4.13;;;3.35;;
14883;SDS011;7534;50.762;7.000;2023-07-31T08:00:15;4.80;;;3.35;;
14883;SDS011;7534;50.762;7.000;2023-07-31T08:02:42;5.65;;;3.58;;
14883;SDS011;7534;50.762;7.000;2023-07-31T08:05:08;4.38;;;3.22;;
14883;SDS011;7534;50.762;7.000;2023-07-31T08:07:34;4.25;;;3.33;;
14883;SDS011;7534;50.762;7.000;2023-07-31T08:10:00;4.97;;;3.63;;
14883;SDS011;7534;50.762;7.000;2023-07-31T08:12:27;7.32;;;3.55;;
14883;SDS011;7534;50.762;7.000;2023-07-31T08:14:52;4.50;;;3.20;;
14883;SDS011;7534;50.762;7.000;2023-07-31T08:17:18;5.85;;;3.90;;
14883;SDS011;7534;50.762;7.000;2023-07-31T08:19:44;4.20;;;3.47;;
14883;SDS011;7534;50.762;7.000;2023-07-31T08:22:11;6.60;;;3.67;;
14883;SDS011;7534;50.762;7.000;2023-07-31T08:24:36;6.67;;;3.40;;
14883;SDS011;7534;50.762;7.000;2023-07-31T08:27:02;6.53;;;3.55;;
14883;SDS011;7534;50.762;7.000;2023-07-31T08:29:28;6.10;;;3.30;;
14883;SDS011;7534;50.762;7.000;2023-07-31T08:31:54;5.82;;;2.90;;
14883;SDS011;7534;50.762;7.000;2023-07-31T08:34:20;4.93;;;3.07;;
14883;SDS011;7534;50.762;7.000;2023-07-31T08:36:45;4.05;;;3.03;;
14883;SDS011;7534;50.762;7.000;2023-07-31T08:39:12;5.65;;;2.92;;
14883;SDS011;7534;50.762;7.000;2023-07-31T08:41:38;4.28;;;2.85;;
14883;SDS011;7534;50.762;7.000;2023-07-31T08:44:04;3.97;;;3.05;;
14883;SDS011;7534;50.762;7.000;2023-07-31T08:46:32;6.20;;;3.53;;
14883;SDS011;7534;50.762;7.000;2023-07-31T08:49:00;8.07;;;3.50;;
14883;SDS011;7534;50.762;7.000;2023-07-31T08:51:36;4.10;;;2.97;;
14883;SDS011;7534;50.762;7.000;2023-07-31T08:54:02;6.75;;;3.72;;
14883;SDS011;7534;50.762;7.000;2023-07-31T08:56:33;5.68;;;3.45;;
14883;SDS011;7534;50.762;7.000;2023-07-31T08:59:02;5.30;;;3.25;;
14883;SDS011;7534;50.762;7.000;2023-07-31T09:01:30;6.70;;;3.38;;
14883;SDS011;7534;50.762;7.000;2023-07-31T09:04:06;7.13;;;3.58;;
14883;SDS011;7534;50.762;7.000;2023-07-31T09:06:35;6.25;;;3.20;;
14883;SDS011;7534;50.762;7.000;2023-07-31T09:09:03;6.22;;;3.28;;
14883;SDS011;7534;50.762;7.000;2023-07-31T09:11:29;5.28;;;3.45;;
14883;SDS011;7534;50.762;7.000;2023-07-31T09:13:56;4.35;;;3.17;;
14883;SDS011;7534;50.762;7.000;2023-07-31T09:16:29;3.33;;;2.85;;
14883;SDS011;7534;50.762;7.000;2023-07-31T09:18:57;3.75;;;3.13;;
14883;SDS011;7534;50.762;7.000;2023-07-31T09:21:23;3.88;;;2.70;;
14883;SDS011;7534;50.762;7.000;2023-07-31T09:23:51;7.28;;;3.22;;
14883;SDS011;7534;50.762;7.000;2023-07-31T09:29:19;3.00;;;2.63;;
14883;SDS011;7534;50.762;7.000;2023-07-31T09:31:45;2.85;;;2.55;;
14883;SDS011;7534;50.762;7.000;2023-07-31T09:34:11;3.95;;;3.13;;
14883;SDS011;7534;50.762;7.000;2023-07-31T09:36:42;5.63;;;3.38;;
14883;SDS011;7534;50.762;7.000;2023-07-31T09:39:13;4.07;;;2.63;;
14883;SDS011;7534;50.762;7.000;2023-07-31T09:41:44;3.38;;;2.65;;
14883;SDS011;7534;50.762;7.000;2023-07-31T09:44:13;2.75;;;2.30;;
14883;SDS011;7534;50.762;7.000;2023-07-31T09:46:39;3.25;;;2.30;;
14883;SDS011;7534;50.762;7.000;2023-07-31T09:49:09;3.67;;;2.40;;
14883;SDS011;7534;50.762;7.000;2023-07-31T09:51:37;3.70;;;2.60;;
14883;SDS011;7534;50.762;7.000;2023-07-31T09:54:13;3.50;;;2.65;;
14883;SDS011;7534;50.762;7.000;2023-07-31T09:56:50;3.97;;;2.40;;
14883;SDS011;7534;50.762;7.000;2023-07-31T09:59:17;3.22;;;2.42;;
14883;SDS011;7534;50.762;7.000;2023-07-31T10:01:45;2.97;;;2.60;;
14883;SDS011;7534;50.762;7.000;2023-07-31T10:04:12;2.97;;;2.40;;
14883;SDS011;7534;50.762;7.000;2023-07-31T10:06:39;4.47;;;2.22;;
14883;SDS011;7534;50.762;7.000;2023-07-31T10:09:09;3.42;;;2.35;;
14883;SDS011;7534;50.762;7.000;2023-07-31T10:11:42;3.47;;;2.20;;
14883;SDS011;7534;50.762;7.000;2023-07-31T10:14:24;4.28;;;2.20;;
14883;SDS011;7534;50.762;7.000;2023-07-31T10:16:53;2.70;;;2.10;;
14883;SDS011;7534;50.762;7.000;2023-07-31T10:19:20;4.95;;;2.45;;
14883;SDS011;7534;50.762;7.000;2023-07-31T10:21:48;2.97;;;2.17;;
14883;SDS011;7534;50.762;7.000;2023-07-31T10:24:14;5.50;;;2.58;;
14883;SDS011;7534;50.762;7.000;2023-07-31T10:26:41;3.33;;;2.28;;
14883;SDS011;7534;50.762;7.000;2023-07-31T10:29:10;4.30;;;2.40;;
14883;SDS011;7534;50.762;7.000;2023-07-31T10:31:38;3.20;;;2.60;;
14883;SDS011;7534;50.762;7.000;2023-07-31T10:34:05;2.58;;;2.22;;
14883;SDS011;7534;50.762;7.000;2023-07-31T10:36:31;3.50;;;2.30;;
14883;SDS011;7534;50.762;7.000;2023-07-31T10:38:57;3.03;;;2.10;;
14883;SDS011;7534;50.762;7.000;2023-07-31T10:41:30;3.05;;;1.92;;
14883;SDS011;7534;50.762;7.000;2023-07-31T10:44:00;2.40;;;2.05;;
14883;SDS011;7534;50.762;7.000;2023-07-31T10:46:27;3.05;;;2.00;;
14883;SDS011;7534;50.762;7.000;2023-07-31T10:48:58;2.75;;;1.95;;
14883;SDS011;7534;50.762;7.000;2023-07-31T10:51:32;3.10;;;2.03;;
14883;SDS011;7534;50.762;7.000;2023-07-31T10:54:13;3.00;;;1.95;;
14883;SDS011;7534;50.762;7.000;2023-07-31T10:56:46;2.70;;;1.90;;
14883;SDS011;7534;50.762;7.000;2023-07-31T10:59:15;3.22;;;2.05;;
14883;SDS011;7534;50.762;7.000;2023-07-31T11:01:55;2.20;;;1.90;;
14883;SDS011;7534;50.762;7.000;2023-07-31T11:04:28;2.03;;;1.83;;
14883;SDS011;7534;50.762;7.000;2023-07-31T11:06:59;2.67;;;1.90;;
14883;SDS011;7534;50.762;7.000;2023-07-31T11:09:31;1.85;;;1.75;;
14883;SDS011;7534;50.762;7.000;2023-07-31T11:12:01;3.58;;;1.70;;
14883;SDS011;7534;50.762;7.000;2023-07-31T11:14:27;1.90;;;1.50;;
14883;SDS011;7534;50.762;7.000;2023-07-31T11:16:53;3.10;;;1.52;;
14883;SDS011;7534;50.762;7.000;2023-07-31T11:19:25;1.90;;;1.40;;
14883;SDS011;7534;50.762;7.000;2023-07-31T11:21:54;2.00;;;1.50;;
14883;SDS011;7534;50.762;7.000;2023-07-31T11:24:21;2.05;;;1.58;;
14883;SDS011;7534;50.762;7.000;2023-07-31T11:26:51;2.88;;;1.67;;
14883;SDS011;7534;50.762;7.000;2023-07-31T11:29:18;2.28;;;1.60;;
14883;SDS011;7534;50.762;7.000;2023-07-31T11:31:54;1.23;;;1.15;;
14883;SDS011;7534;50.762;7.000;2023-07-31T11:34:29;3.47;;;1.30;;
14883;SDS011;7534;50.762;7.000;2023-07-31T11:37:22;1.40;;;1.30;;
14883;SDS011;7534;50.762;7.000;2023-07-31T11:40:11;2.38;;;1.35;;
14883;SDS011;7534;50.762;7.000;2023-07-31T11:42:38;1.40;;;1.30;;
14883;SDS011;7534;50.762;7.000;2023-07-31T11:45:07;1.50;;;1.40;;
14883;SDS011;7534;50.762;7.000;2023-07-31T11:47:35;1.50;;;1.40;;
14883;SDS011;7534;50.762;7.000;2023-07-31T11:50:03;2.13;;;1.33;;
14883;SDS011;7534;50.762;7.000;2023-07-31T11:52:32;2.15;;;1.85;;
14883;SDS011;7534;50.762;7.000;2023-07-31T11:55:07;1.48;;;1.25;;
14883;SDS011;7534;50.762;7.000;2023-07-31T11:57:38;2.13;;;1.30;;
14883;SDS011;7534;50.762;7.000;2023-07-31T12:00:07;1.70;;;1.50;;
14883;SDS011;7534;50.762;7.000;2023-07-31T12:02:36;1.63;;;1.10;;
14883;SDS011;7534;50.762;7.000;2023-07-31T12:05:05;1.30;;;1.20;;
14883;SDS011;7534;50.762;7.000;2023-07-31T12:07:45;1.35;;;1.10;;
14883;SDS011;7534;50.762;7.000;2023-07-31T12:10:23;1.63;;;1.35;;
14883;SDS011;7534;50.762;7.000;2023-07-31T12:12:58;1.60;;;1.50;;
14883;SDS011;7534;50.762;7.000;2023-07-31T12:15:45;2.22;;;1.65;;
14883;SDS011;7534;50.762;7.000;2023-07-31T12:18:12;2.30;;;1.70;;
14883;SDS011;7534;50.762;7.000;2023-07-31T12:20:43;1.60;;;1.50;;
14883;SDS011;7534;50.762;7.000;2023-07-31T12:25:42;2.30;;;1.80;;
14883;SDS011;7534;50.762;7.000;2023-07-31T12:28:08;2.30;;;2.10;;
14883;SDS011;7534;50.762;7.000;2023-07-31T12:30:38;2.38;;;2.13;;
14883;SDS011;7534;50.762;7.000;2023-07-31T12:33:06;2.58;;;2.20;;
14883;SDS011;7534;50.762;7.000;2023-07-31T12:35:46;2.60;;;2.08;;
14883;SDS011;7534;50.762;7.000;2023-07-31T12:38:12;3.85;;;2.13;;
14883;SDS011;7534;50.762;7.000;2023-07-31T12:40:39;2.55;;;2.35;;
14883;SDS011;7534;50.762;7.000;2023-07-31T12:43:07;2.40;;;2.22;;
14883;SDS011;7534;50.762;7.000;2023-07-31T12:45:33;4.50;;;2.70;;
14883;SDS011;7534;50.762;7.000;2023-07-31T12:48:00;4.07;;;2.88;;
14883;SDS011;7534;50.762;7.000;2023-07-31T12:50:26;3.20;;;2.90;;
14883;SDS011;7534;50.762;7.000;2023-07-31T12:52:53;2.75;;;2.55;;
14883;SDS011;7534;50.762;7.000;2023-07-31T12:55:20;3.83;;;2.95;;
14883;SDS011;7534;50.762;7.000;2023-07-31T12:57:47;2.85;;;2.63;;
14883;SDS011;7534;50.762;7.000;2023-07-31T13:00:14;3.25;;;2.80;;
14883;SDS011;7534;50.762;7.000;2023-07-31T13:02:39;3.88;;;2.65;;
14883;SDS011;7534;50.762;7.000;2023-07-31T13:05:05;3.28;;;3.08;;
14883;SDS011;7534;50.762;7.000;2023-07-31T13:07:31;3.78;;;3.38;;
14883;SDS011;7534;50.762;7.000;2023-07-31T13:09:57;3.35;;;2.95;;
14883;SDS011;7534;50.762;7.000;2023-07-31T13:12:23;3.95;;;2.97;;
14883;SDS011;7534;50.762;7.000;2023-07-31T13:14:49;3.03;;;2.80;;
14883;SDS011;7534;50.762;7.000;2023-07-31T13:17:16;3.30;;;3.00;;
14883;SDS011;7534;50.762;7.000;2023-07-31T13:19:42;2.97;;;2.70;;
14883;SDS011;7534;50.762;7.000;2023-07-31T13:22:08;3.03;;;2.83;;
14883;SDS011;7534;50.762;7.000;2023-07-31T13:24:34;2.97;;;2.65;;
14883;SDS011;7534;50.762;7.000;2023-07-31T13:27:00;3.13;;;2.80;;
14883;SDS011;7534;50.762;7.000;2023-07-31T13:29:25;3.10;;;2.80;;
14883;SDS011;7534;50.762;7.000;2023-07-31T13:31:52;3.35;;;3.05;;
14883;SDS011;7534;50.762;7.000;2023-07-31T13:34:18;2.80;;;2.60;;
14883;SDS011;7534;50.762;7.000;2023-07-31T13:36:44;2.80;;;2.60;;
14883;SDS011;7534;50.762;7.000;2023-07-31T13:39:10;2.70;;;2.50;;
14883;SDS011;7534;50.762;7.000;2023-07-31T13:41:36;2.50;;;2.30;;
14883;SDS011;7534;50.762;7.000;2023-07-31T13:44:02;2.42;;;2.22;;
14883;SDS011;7534;50.762;7.000;2023-07-31T13:46:28;2.30;;;2.10;;
14883;SDS011;7534;50.762;7.000;2023-07-31T13:48:54;2.10;;;1.90;;
14883;SDS011;7534;50.762;7.000;2023-07-31T13:51:22;4.05;;;2.30;;
14883;SDS011;7534;50.762;7.000;2023-07-31T13:53:48;2.28;;;2.08;;
14883;SDS011;7534;50.762;7.000;2023-07-31T13:56:14;2.25;;;2.05;;
14883;SDS011;7534;50.762;7.000;2023-07-31T13:58:45;2.42;;;2.00;;
14883;SDS011;7534;50.762;7.000;2023-07-31T14:01:11;2.50;;;2.30;;
14883;SDS011;7534;50.762;7.000;2023-07-31T14:03:37;2.60;;;2.17;;
14883;SDS011;7534;50.762;7.000;2023-07-31T14:06:02;2.20;;;2.10;;
14883;SDS011;7534;50.762;7.000;2023-07-31T14:08:29;2.42;;;2.22;;
14883;SDS011;7534;50.762;7.000;2023-07-31T14:10:55;2.53;;;2.33;;
14883;SDS011;7534;50.762;7.000;2023-07-31T14:13:21;2.40;;;2.20;;
14883;SDS011;7534;50.762;7.000;2023-07-31T14:15:47;2.13;;;2.03;;
14883;SDS011;7534;50.762;7.000;2023-07-31T14:18:13;2.45;;;2.20;;
14883;SDS011;7534;50.762;7.000;2023-07-31T14:20:38;2.40;;;2.20;;
14883;SDS011;7534;50.762;7.000;2023-07-31T14:23:04;2.50;;;2.30;;
14883;SDS011;7534;50.762;7.000;2023-07-31T14:25:30;2.17;;;1.98;;
14883;SDS011;7534;50.762;7.000;2023-07-31T14:27:56;2.20;;;2.00;;
14883;SDS011;7534;50.762;7.000;2023-07-31T14:30:22;2.33;;;2.10;;
14883;SDS011;7534;50.762;7.000;2023-07-31T14:32:57;2.30;;;2.10;;
14883;SDS011;7534;50.762;7.000;2023-07-31T14:35:24;3.83;;;2.10;;
14883;SDS011;7534;50.762;7.000;2023-07-31T14:37:50;2.65;;;2.10;;
14883;SDS011;7534;50.762;7.000;2023-07-31T14:40:16;2.00;;;1.90;;
14883;SDS011;7534;50.762;7.000;2023-07-31T14:42:41;2.00;;;1.83;;
14883;SDS011;7534;50.762;7.000;2023-07-31T14:45:14;2.30;;;2.10;;
14883;SDS011;7534;50.762;7.000;2023-07-31T14:47:44;2.40;;;2.20;;
14883;SDS011;7534;50.762;7.000;2023-07-31T14:50:12;2.17;;;1.95;;
14883;SDS011;7534;50.762;7.000;2023-07-31T14:52:37;2.60;;;2.05;;
14883;SDS011;7534;50.762;7.000;2023-07-31T14:55:03;2.30;;;2.00;;
14883;SDS011;7534;50.762;7.000;2023-07-31T14:57:30;2.10;;;1.90;;
14883;SDS011;7534;50.762;7.000;2023-07-31T14:59:56;2.35;;;2.15;;
14883;SDS011;7534;50.762;7.000;2023-07-31T15:02:22;2.78;;;2.33;;
14883;SDS011;7534;50.762;7.000;2023-07-31T15:04:47;2.40;;;2.20;;
14883;SDS011;7534;50.762;7.000;2023-07-31T15:07:13;2.60;;;2.40;;
14883;SDS011;7534;50.762;7.000;2023-07-31T15:09:39;2.38;;;2.17;;
14883;SDS011;7534;50.762;7.000;2023-07-31T15:12:05;2.58;;;2.38;;
14883;SDS011;7534;50.762;7.000;2023-07-31T15:14:31;3.03;;;2.50;;